createdAt,value
2022-09-02T00:02:24.070Z,3.17
2022-09-02T00:05:11.972Z,3.35
2022-09-02T00:07:46.012Z,1.85
2022-09-02T00:10:33.933Z,2.15
2022-09-02T00:13:08.037Z,1.17
2022-09-02T00:15:55.963Z,1.30
2022-09-02T00:18:30.035Z,2.38
2022-09-02T00:21:18.946Z,3.28
2022-09-02T00:23:59.963Z,3.20
2022-09-02T00:26:56.454Z,3.22
2022-09-02T00:29:45.958Z,2.90
2022-09-02T00:32:20.006Z,3.08
2022-09-02T00:35:07.942Z,2.47
2022-09-02T00:37:42.094Z,1.75
2022-09-02T00:40:30.034Z,2.30
2022-09-02T00:43:04.027Z,1.45
2022-09-02T00:45:51.063Z,1.65
2022-09-02T00:48:25.157Z,2.30
2022-09-02T00:51:11.965Z,2.75
2022-09-02T00:53:46.033Z,1.48
2022-09-02T00:56:36.963Z,2.72
2022-09-02T00:59:30.948Z,3.50
2022-09-02T01:02:30.959Z,0.60
2022-09-02T01:05:20.979Z,2.50
2022-09-02T01:07:55.063Z,1.75
2022-09-02T01:10:42.987Z,1.52
2022-09-02T01:13:26.059Z,1.83
2022-09-02T01:16:40.088Z,1.88
2022-09-02T01:19:38.048Z,2.45
2022-09-02T01:22:31.969Z,2.65
2022-09-02T01:25:22.995Z,2.33
2022-09-02T01:28:21.957Z,2.60
2022-09-02T01:31:11.051Z,3.33
2022-09-02T01:33:45.433Z,6.60
2022-09-02T01:36:31.987Z,4.65
2022-09-02T01:39:07.054Z,6.82
2022-09-02T01:41:54.979Z,10.07
2022-09-02T01:44:29.057Z,4.15
2022-09-02T01:47:16.969Z,2.58
2022-09-02T01:49:57.997Z,4.07
2022-09-02T01:52:51.966Z,6.20
2022-09-02T01:58:13.086Z,4.75
2022-09-02T02:01:00.039Z,3.28
2022-09-02T02:03:34.057Z,4.90
2022-09-02T02:06:23.013Z,6.25
2022-09-02T02:08:57.056Z,3.40
2022-09-02T02:11:44.995Z,3.25
2022-09-02T02:14:19.102Z,4.47
2022-09-02T02:17:05.993Z,3.30
2022-09-02T02:19:41.181Z,3.63
2022-09-02T02:22:28.025Z,5.57
2022-09-02T02:25:08.994Z,3.08
2022-09-02T02:28:02.987Z,4.07
2022-09-02T02:30:52.020Z,6.65
2022-09-02T02:33:36.041Z,3.78
2022-09-02T02:36:23.025Z,6.03
2022-09-02T02:38:57.069Z,2.17
2022-09-02T02:41:45.112Z,3.88
2022-09-02T02:44:19.138Z,2.85
2022-09-02T02:47:06.022Z,4.75
2022-09-02T02:49:44.384Z,3.95
2022-09-02T02:52:31.003Z,5.15
2022-09-02T02:55:06.479Z,6.72
2022-09-02T02:57:54.034Z,25.73
2022-09-02T03:00:37.998Z,9.52
2022-09-02T03:03:32.018Z,4.55
2022-09-02T03:09:00.675Z,2.88
2022-09-02T03:11:47.014Z,3.33
2022-09-02T03:14:21.080Z,4.65
2022-09-02T03:17:08.013Z,3.17
2022-09-02T03:19:42.081Z,3.88
2022-09-02T03:22:29.029Z,4.38
2022-09-02T03:25:03.118Z,2.95
2022-09-02T03:27:53.034Z,3.47
2022-09-02T03:30:38.021Z,3.13
2022-09-02T03:33:32.041Z,5.90
2022-09-02T03:36:46.035Z,2.67
2022-09-02T03:39:21.183Z,3.13
2022-09-02T03:42:08.037Z,5.15
2022-09-02T03:44:53.305Z,2.45
2022-09-02T03:47:40.061Z,2.95
2022-09-02T03:50:14.105Z,4.65
2022-09-02T03:53:02.057Z,2.67
2022-09-02T03:55:36.126Z,2.53
2022-09-02T03:58:24.486Z,4.47
2022-09-02T04:01:09.038Z,2.65
2022-09-02T04:03:50.114Z,2.22
2022-09-02T04:06:38.056Z,1.77
2022-09-02T04:09:11.926Z,3.45
2022-09-02T04:12:00.034Z,3.60
2022-09-02T04:14:33.881Z,1.73
2022-09-02T04:17:22.018Z,1.05
2022-09-02T04:19:55.726Z,2.40
2022-09-02T04:22:43.052Z,2.78
2022-09-02T04:25:16.706Z,2.15
2022-09-02T04:28:04.045Z,2.60
2022-09-02T04:30:47.156Z,1.65
2022-09-02T04:33:28.060Z,2.53
2022-09-02T04:36:14.613Z,1.80
2022-09-02T04:38:49.116Z,1.40
2022-09-02T04:41:37.082Z,1.77
2022-09-02T04:44:11.135Z,3.17
2022-09-02T04:46:58.074Z,5.90
2022-09-02T04:49:33.292Z,8.05
2022-09-02T04:52:20.067Z,11.15
2022-09-02T04:54:54.128Z,6.53
2022-09-02T04:57:41.060Z,3.83
2022-09-02T05:00:16.187Z,1.67
2022-09-02T05:03:03.066Z,3.75
2022-09-02T05:05:46.082Z,12.10
2022-09-02T05:08:40.049Z,10.65
2022-09-02T05:14:06.768Z,9.68
2022-09-02T05:19:29.980Z,5.55
2022-09-02T05:22:17.083Z,1.50
2022-09-02T05:24:51.535Z,2.75
2022-09-02T05:27:40.079Z,9.75
2022-09-02T05:30:14.237Z,4.67
2022-09-02T05:33:01.081Z,3.10
2022-09-02T05:35:35.167Z,5.38
2022-09-02T05:38:27.071Z,9.50
2022-09-02T05:41:08.089Z,6.38
2022-09-02T05:43:56.084Z,7.05
2022-09-02T05:46:46.787Z,2.10
2022-09-02T05:49:42.055Z,4.72
2022-09-02T05:52:30.091Z,6.70
2022-09-02T05:55:04.184Z,10.23
2022-09-02T05:57:53.103Z,8.10
2022-09-02T06:00:28.922Z,11.07
2022-09-02T06:03:16.206Z,2.95
2022-09-02T06:05:50.148Z,2.15
2022-09-02T06:08:37.091Z,2.97
2022-09-02T06:11:11.160Z,5.65
2022-09-02T06:13:59.099Z,3.35
2022-09-02T06:16:33.166Z,4.80
2022-09-02T06:19:20.488Z,1.95
2022-09-02T06:22:02.091Z,5.50
2022-09-02T06:24:56.101Z,6.50
2022-09-02T06:27:45.109Z,1.85
2022-09-02T06:30:26.140Z,1.55
2022-09-02T06:33:13.177Z,6.28
2022-09-02T06:35:50.488Z,1.85
2022-09-02T06:38:37.114Z,3.35
2022-09-02T06:41:11.147Z,3.03
2022-09-02T06:43:58.104Z,3.00
2022-09-02T06:46:40.347Z,1.80
2022-09-02T06:49:28.136Z,2.00
2022-09-02T06:52:03.185Z,2.08
2022-09-02T06:54:50.107Z,3.85
2022-09-02T06:57:31.442Z,2.55
2022-09-02T07:00:28.100Z,2.35
2022-09-02T07:03:35.124Z,2.85
2022-09-02T07:06:12.682Z,1.65
2022-09-02T07:08:59.113Z,1.33
2022-09-02T07:11:33.211Z,0.70
2022-09-02T07:14:25.132Z,1.88
2022-09-02T07:17:00.176Z,1.45
2022-09-02T07:19:47.114Z,1.95
2022-09-02T07:22:21.188Z,1.42
2022-09-02T07:25:08.123Z,1.80
2022-09-02T07:27:58.126Z,1.80
2022-09-02T07:30:31.748Z,0.90
2022-09-02T07:33:20.138Z,1.10
2022-09-02T07:35:55.284Z,0.82
2022-09-02T07:38:43.120Z,8.32
2022-09-02T07:41:23.146Z,2.03
2022-09-02T07:44:11.128Z,1.95
2022-09-02T07:46:46.945Z,2.28
2022-09-02T07:52:28.849Z,0.70
2022-09-02T07:55:16.128Z,1.30
2022-09-02T07:57:50.186Z,3.50
2022-09-02T08:00:40.162Z,3.53
2022-09-02T08:03:21.144Z,2.88
2022-09-02T08:06:02.990Z,1.90
2022-09-02T08:08:43.132Z,4.60
2022-09-02T08:11:24.248Z,2.88
2022-09-02T08:14:04.141Z,4.85
2022-09-02T08:16:45.253Z,7.70
2022-09-02T08:19:33.133Z,3.72
2022-09-02T08:22:13.224Z,7.63
2022-09-02T08:25:00.152Z,2.83
2022-09-02T08:27:34.226Z,4.18
2022-09-02T08:30:21.171Z,4.18
2022-09-02T08:32:55.238Z,2.85
2022-09-02T08:35:42.177Z,3.38
2022-09-02T08:38:16.238Z,4.90
2022-09-02T08:41:03.171Z,1.67
2022-09-02T08:43:55.140Z,3.40
2022-09-02T08:46:42.175Z,1.63
2022-09-02T08:49:27.139Z,1.33
2022-09-02T08:52:21.163Z,1.95
2022-09-02T08:57:44.400Z,2.60
2022-09-02T09:00:31.152Z,0.75
2022-09-02T09:03:23.361Z,0.90
2022-09-02T09:06:22.164Z,1.00
2022-09-02T09:09:34.254Z,1.00
2022-09-02T09:12:39.173Z,1.15
2022-09-02T09:15:47.166Z,1.90
2022-09-02T09:18:54.169Z,1.67
2022-09-02T09:21:41.166Z,0.80
2022-09-02T09:24:30.242Z,0.70
2022-09-02T09:27:21.155Z,1.10
2022-09-02T09:30:03.416Z,0.70
2022-09-02T09:32:54.203Z,5.95
2022-09-02T09:36:00.165Z,3.08
2022-09-02T09:38:36.089Z,0.80
2022-09-02T09:41:28.191Z,1.30
2022-09-02T09:44:08.754Z,1.13
2022-09-02T09:46:56.179Z,1.60
2022-09-02T09:49:32.073Z,4.43
2022-09-02T09:52:20.184Z,2.10
2022-09-02T09:55:12.797Z,1.15
2022-09-02T09:58:02.197Z,1.20
2022-09-02T10:00:36.026Z,1.50
2022-09-02T10:03:35.186Z,1.88
2022-09-02T10:06:46.227Z,1.25
2022-09-02T10:09:27.311Z,2.78
2022-09-02T10:12:14.198Z,1.25
2022-09-02T10:14:56.255Z,2.88
2022-09-02T10:18:06.210Z,1.08
2022-09-02T10:21:16.561Z,2.72
2022-09-02T10:24:39.225Z,2.20
2022-09-02T10:27:31.188Z,1.17
2022-09-02T10:30:11.439Z,1.00
2022-09-02T10:32:59.205Z,1.30
2022-09-02T10:35:52.195Z,2.05
2022-09-02T10:38:58.222Z,2.35
2022-09-02T10:41:54.194Z,0.90
2022-09-02T10:44:58.954Z,1.17
2022-09-02T10:48:13.240Z,1.02
2022-09-02T10:51:23.219Z,1.08
2022-09-02T10:54:52.201Z,2.72
2022-09-02T10:57:59.222Z,1.58
2022-09-02T11:00:51.285Z,0.93
2022-09-02T11:03:41.712Z,3.70
2022-09-02T11:06:58.796Z,1.05
2022-09-02T11:10:09.245Z,1.42
2022-09-02T11:12:50.963Z,3.33
2022-09-02T11:15:50.279Z,2.25
2022-09-02T11:19:12.217Z,0.90
2022-09-02T11:22:36.425Z,0.95
2022-09-02T11:25:28.253Z,1.50
2022-09-02T11:28:55.481Z,1.25
2022-09-02T11:31:52.234Z,0.80
2022-09-02T11:34:38.278Z,2.55
2022-09-02T11:37:47.241Z,0.90
2022-09-02T11:41:32.920Z,1.15
2022-09-02T11:44:14.804Z,0.95
2022-09-02T11:47:02.296Z,3.47
2022-09-02T11:50:06.235Z,0.90
2022-09-02T11:53:14.243Z,1.05
2022-09-02T11:55:50.023Z,1.13
2022-09-02T11:58:51.245Z,1.95
2022-09-02T12:01:54.294Z,0.90
2022-09-02T12:05:00.015Z,0.90
2022-09-02T12:07:55.284Z,2.90
2022-09-02T12:10:55.250Z,1.33
2022-09-02T12:13:41.309Z,0.68
2022-09-02T12:16:28.351Z,1.52
2022-09-02T12:19:14.244Z,1.17
2022-09-02T12:22:23.611Z,0.70
2022-09-02T12:25:06.647Z,0.82
2022-09-02T12:27:47.329Z,1.35
2022-09-02T12:31:15.298Z,1.10
2022-09-02T12:36:45.292Z,0.70
2022-09-02T12:39:32.081Z,5.15
2022-09-02T12:42:19.279Z,1.67
2022-09-02T12:45:20.327Z,3.70
2022-09-02T12:48:38.357Z,1.27
2022-09-02T12:51:19.324Z,2.00
2022-09-02T12:53:59.293Z,0.80
2022-09-02T12:56:40.324Z,0.70
2022-09-02T12:59:36.290Z,1.38
2022-09-02T13:02:26.865Z,2.55
2022-09-02T13:05:26.285Z,0.88
2022-09-02T13:08:07.364Z,0.80
2022-09-02T13:11:32.356Z,1.05
2022-09-02T13:14:47.331Z,0.70
2022-09-02T13:17:43.857Z,0.80
2022-09-02T13:20:45.286Z,0.98
2022-09-02T13:23:43.229Z,2.15
2022-09-02T13:26:50.557Z,0.90
2022-09-02T13:29:44.268Z,1.08
2022-09-02T13:32:27.365Z,1.73
2022-09-02T13:35:24.605Z,0.90
2022-09-02T13:38:06.461Z,1.30
2022-09-02T13:40:50.315Z,0.90
2022-09-02T13:43:39.286Z,1.00
2022-09-02T13:46:12.916Z,1.27
2022-09-02T13:49:00.283Z,1.10
2022-09-02T13:51:34.161Z,5.63
2022-09-02T13:54:23.555Z,1.50
2022-09-02T13:57:07.331Z,1.10
2022-09-02T13:59:55.411Z,1.35
2022-09-02T14:02:39.469Z,1.65
2022-09-02T14:05:27.559Z,0.73
2022-09-02T14:08:11.311Z,2.05
2022-09-02T14:10:53.928Z,2.90
2022-09-02T14:13:34.304Z,2.00
2022-09-02T14:16:45.296Z,1.50
2022-09-02T14:19:21.687Z,1.25
2022-09-02T14:22:10.324Z,3.17
2022-09-02T14:25:04.311Z,1.63
2022-09-02T14:27:58.317Z,0.90
2022-09-02T14:30:37.370Z,2.40
2022-09-02T14:33:35.326Z,1.42
2022-09-02T14:36:22.305Z,1.00
2022-09-02T14:42:20.331Z,1.48
2022-09-02T14:45:16.353Z,2.30
2022-09-02T14:48:14.376Z,1.20
2022-09-02T14:51:07.331Z,1.20
2022-09-02T14:53:49.328Z,1.20
2022-09-02T14:56:59.341Z,2.28
2022-09-02T14:59:33.392Z,2.78
2022-09-02T15:02:50.312Z,1.73
2022-09-02T15:05:24.756Z,0.98
2022-09-02T15:08:11.335Z,5.82
2022-09-02T15:10:53.359Z,16.20
2022-09-02T15:13:47.335Z,1.23
2022-09-02T15:16:36.374Z,1.27
2022-09-02T15:19:10.477Z,3.22
2022-09-02T15:21:57.357Z,0.88
2022-09-02T15:24:39.417Z,2.65
2022-09-02T15:27:21.854Z,4.00
2022-09-02T15:30:02.483Z,9.07
2022-09-02T15:32:44.369Z,1.10
2022-09-02T15:35:25.425Z,1.30
2022-09-02T15:38:05.367Z,1.85
2022-09-02T15:40:53.339Z,1.70
2022-09-02T15:43:26.901Z,1.58
2022-09-02T15:46:14.415Z,1.25
2022-09-02T15:48:57.920Z,3.13
2022-09-02T15:51:51.357Z,1.50
2022-09-02T15:54:29.681Z,2.95
2022-09-02T15:57:18.372Z,1.50
2022-09-02T15:59:58.371Z,1.15
2022-09-02T16:02:46.465Z,1.50
2022-09-02T16:05:21.473Z,1.48
2022-09-02T16:08:09.368Z,2.72
2022-09-02T16:10:51.425Z,2.70
2022-09-02T16:13:41.360Z,1.13
2022-09-02T16:16:29.445Z,0.70
2022-09-02T16:19:03.606Z,2.75
2022-09-02T16:21:50.391Z,1.10
2022-09-02T16:24:31.363Z,2.15
2022-09-02T16:27:18.388Z,2.17
2022-09-02T16:29:52.460Z,1.55
2022-09-02T16:32:39.404Z,4.03
2022-09-02T16:35:13.478Z,0.88
2022-09-02T16:38:03.418Z,0.88
2022-09-02T16:41:00.474Z,2.08
2022-09-02T16:43:47.384Z,2.38
2022-09-02T16:46:28.468Z,2.17
2022-09-02T16:49:25.392Z,3.08
2022-09-02T16:52:12.404Z,2.92
2022-09-02T16:54:46.525Z,6.60
2022-09-02T16:57:33.400Z,0.60
2022-09-02T17:00:07.468Z,1.70
2022-09-02T17:02:54.447Z,0.75
2022-09-02T17:05:28.482Z,2.83
2022-09-02T17:08:15.415Z,1.05
2022-09-02T17:10:49.535Z,1.30
2022-09-02T17:13:36.435Z,1.02
2022-09-02T17:16:17.421Z,1.48
2022-09-02T17:19:12.380Z,1.17
2022-09-02T17:22:07.402Z,3.35
2022-09-02T17:24:54.384Z,2.13
2022-09-02T17:27:28.482Z,2.30
2022-09-02T17:30:17.396Z,4.85
2022-09-02T17:32:56.201Z,1.88
2022-09-02T17:36:09.426Z,3.70
2022-09-02T17:39:09.381Z,2.83
2022-09-02T17:42:04.415Z,11.52
2022-09-02T17:44:50.404Z,43.88
2022-09-02T17:47:45.405Z,47.25
2022-09-02T17:50:32.426Z,39.25
2022-09-02T17:53:13.495Z,30.95
2022-09-02T17:55:56.412Z,13.73
2022-09-02T17:58:43.511Z,27.88
2022-09-02T18:01:34.452Z,23.33
2022-09-02T18:04:55.470Z,23.35
2022-09-02T18:08:08.419Z,37.58
2022-09-02T18:11:03.020Z,17.90
2022-09-02T18:14:06.415Z,14.80
2022-09-02T18:17:05.472Z,18.50
2022-09-02T18:20:17.057Z,31.85
2022-09-02T18:23:30.422Z,15.27
2022-09-02T18:26:47.443Z,25.73
2022-09-02T18:29:57.486Z,8.03
2022-09-02T18:32:52.440Z,6.65
2022-09-02T18:35:55.788Z,4.30
2022-09-02T18:38:53.450Z,5.63
2022-09-02T18:41:41.436Z,7.95
2022-09-02T18:44:27.069Z,10.57
2022-09-02T18:47:19.451Z,4.65
2022-09-02T18:49:55.682Z,2.92
2022-09-02T18:52:43.423Z,6.27
2022-09-02T18:55:17.462Z,3.45
2022-09-02T18:58:15.465Z,4.47
2022-09-02T19:00:53.978Z,4.95
2022-09-02T19:03:49.417Z,3.08
2022-09-02T19:06:48.438Z,2.50
2022-09-02T19:09:35.456Z,2.97
2022-09-02T19:12:10.938Z,5.45
2022-09-02T19:14:58.458Z,5.60
2022-09-02T19:17:32.529Z,7.00
2022-09-02T19:20:19.499Z,142.52
2022-09-02T19:22:58.667Z,155.73
2022-09-02T19:25:50.454Z,123.90
2022-09-02T19:28:32.458Z,41.17
2022-09-02T19:31:22.933Z,19.40
2022-09-02T19:34:15.441Z,6.85
2022-09-02T19:36:50.795Z,3.80
2022-09-02T19:39:38.513Z,6.68
2022-09-02T19:42:12.142Z,5.38
2022-09-02T19:44:59.499Z,5.18
2022-09-02T19:50:42.479Z,2.55
2022-09-02T19:53:31.967Z,4.90
2022-09-02T19:56:15.486Z,4.60
2022-09-02T19:58:57.609Z,5.93
2022-09-02T20:01:38.486Z,2.60
2022-09-02T20:04:18.467Z,6.03
2022-09-02T20:06:52.932Z,1.98
2022-09-02T20:09:39.490Z,5.72
2022-09-02T20:12:14.556Z,14.90
2022-09-02T20:15:01.464Z,9.98
2022-09-02T20:17:35.561Z,11.45
2022-09-02T20:20:26.476Z,6.32
2022-09-02T20:23:01.611Z,7.30
2022-09-02T20:26:13.487Z,3.13
2022-09-02T20:29:25.199Z,6.30
2022-09-02T20:32:22.501Z,4.88
2022-09-02T20:35:24.479Z,2.15
2022-09-02T20:38:41.480Z,5.47
2022-09-02T20:41:54.480Z,6.20
2022-09-02T20:44:37.960Z,2.83
2022-09-02T20:47:46.473Z,4.45
2022-09-02T20:50:53.543Z,1.95
2022-09-02T20:53:55.646Z,4.60
2022-09-02T20:57:07.476Z,2.53
2022-09-02T21:00:39.503Z,5.82
2022-09-02T21:03:32.478Z,2.90
2022-09-02T21:06:09.122Z,5.05
2022-09-02T21:09:11.509Z,2.38
2022-09-02T21:11:53.384Z,4.22
2022-09-02T21:14:50.517Z,2.70
2022-09-02T21:18:00.484Z,3.85
2022-09-02T21:21:00.534Z,4.13
2022-09-02T21:23:52.503Z,3.95
2022-09-02T21:26:56.795Z,5.15
2022-09-02T21:29:56.145Z,5.65
2022-09-02T21:32:31.546Z,4.60
2022-09-02T21:35:22.518Z,7.78
2022-09-02T21:38:12.519Z,3.40
2022-09-02T21:41:33.498Z,3.28
2022-09-02T21:44:52.491Z,3.75
2022-09-02T21:47:47.588Z,3.05
2022-09-02T21:50:34.511Z,5.72
2022-09-02T21:56:17.492Z,6.30
2022-09-02T21:59:23.502Z,1.73
2022-09-02T22:02:04.896Z,1.95
2022-09-02T22:05:00.520Z,3.45
2022-09-02T22:07:49.245Z,7.35
2022-09-02T22:10:36.520Z,5.38
2022-09-02T22:13:11.379Z,3.45
2022-09-02T22:16:19.602Z,4.75
2022-09-02T22:19:00.379Z,4.72
2022-09-02T22:21:55.536Z,2.70
2022-09-02T22:24:31.083Z,3.92
2022-09-02T22:27:30.528Z,3.60
2022-09-02T22:30:15.092Z,5.45
2022-09-02T22:33:03.548Z,10.05
2022-09-02T22:35:47.502Z,2.83
2022-09-02T22:38:37.535Z,2.50
2022-09-02T22:41:33.831Z,2.55
2022-09-02T22:45:03.536Z,8.40
2022-09-02T22:48:03.550Z,6.07
2022-09-02T22:51:05.076Z,6.78
2022-09-02T22:53:45.537Z,5.85
2022-09-02T22:56:48.716Z,6.15
2022-09-02T22:59:33.542Z,6.88
2022-09-02T23:02:23.639Z,4.90
2022-09-02T23:05:09.560Z,4.13
2022-09-02T23:07:57.520Z,3.42
2022-09-02T23:10:31.579Z,3.42
2022-09-02T23:13:26.540Z,4.10
2022-09-02T23:16:25.565Z,5.25
2022-09-02T23:19:13.574Z,3.15
2022-09-02T23:22:12.387Z,2.63
2022-09-02T23:25:08.532Z,3.90
2022-09-02T23:27:45.119Z,3.35
2022-09-02T23:30:33.521Z,4.18
2022-09-02T23:33:25.793Z,3.83
2022-09-02T23:36:16.544Z,3.00
2022-09-02T23:39:02.877Z,2.88
2022-09-02T23:41:50.567Z,2.65
2022-09-02T23:44:25.722Z,3.10
2022-09-02T23:47:43.537Z,3.17
2022-09-02T23:50:29.537Z,2.47
2022-09-02T23:53:19.101Z,3.67
2022-09-02T23:55:58.558Z,4.57
2022-09-02T23:58:40.941Z,4.35
